sensor_id;sensor_type;location;lat;lon;timestamp;P1;P2;P0
57884;PMS5003;43703;51.060;-0.086;2023-02-23T00:01:25;22;21;
57884;PMS5003;43703;51.060;-0.086;2023-02-23T00:03:50;18;18;
57884;PMS5003;43703;51.060;-0.086;2023-02-23T00:06:15;20;19;
57884;PMS5003;43703;51.060;-0.086;2023-02-23T00:08:41;22;21;
57884;PMS5003;43703;51.060;-0.086;2023-02-23T00:11:07;18;18;
57884;PMS5003;43703;51.060;-0.086;2023-02-23T00:18:27;20;20;
57884;PMS5003;43703;51.060;-0.086;2023-02-23T00:23:13;19;18;
57884;PMS5003;43703;51.060;-0.086;2023-02-23T00:25:38;20;20;
57884;PMS5003;43703;51.060;-0.086;2023-02-23T00:28:03;18;18;
57884;PMS5003;43703;51.060;-0.086;2023-02-23T00:30:29;21;21;
57884;PMS5003;43703;51.060;-0.086;2023-02-23T00:32:54;21;19;
57884;PMS5003;43703;51.060;-0.086;2023-02-23T00:35:19;21;21;
57884;PMS5003;43703;51.060;-0.086;2023-02-23T00:37:46;23;19;
57884;PMS5003;43703;51.060;-0.086;2023-02-23T00:40:11;19;19;
57884;PMS5003;43703;51.060;-0.086;2023-02-23T00:42:35;22;20;
57884;PMS5003;43703;51.060;-0.086;2023-02-23T00:45:00;24;23;
57884;PMS5003;43703;51.060;-0.086;2023-02-23T00:47:26;29;24;
57884;PMS5003;43703;51.060;-0.086;2023-02-23T00:49:51;23;23;
57884;PMS5003;43703;51.060;-0.086;2023-02-23T00:52:17;22;21;
57884;PMS5003;43703;51.060;-0.086;2023-02-23T00:54:42;22;22;
57884;PMS5003;43703;51.060;-0.086;2023-02-23T00:57:07;23;23;
57884;PMS5003;43703;51.060;-0.086;2023-02-23T00:59:33;28;23;
57884;PMS5003;43703;51.060;-0.086;2023-02-23T01:01:58;26;26;
57884;PMS5003;43703;51.060;-0.086;2023-02-23T01:04:23;30;23;
57884;PMS5003;43703;51.060;-0.086;2023-02-23T01:06:49;21;20;
57884;PMS5003;43703;51.060;-0.086;2023-02-23T01:09:14;21;21;
57884;PMS5003;43703;51.060;-0.086;2023-02-23T01:11:39;30;26;
57884;PMS5003;43703;51.060;-0.086;2023-02-23T01:14:05;26;24;
57884;PMS5003;43703;51.060;-0.086;2023-02-23T01:16:31;26;25;
57884;PMS5003;43703;51.060;-0.086;2023-02-23T01:18:57;26;24;
57884;PMS5003;43703;51.060;-0.086;2023-02-23T01:21:22;32;27;
57884;PMS5003;43703;51.060;-0.086;2023-02-23T01:23:47;25;23;
57884;PMS5003;43703;51.060;-0.086;2023-02-23T01:26:14;22;22;
57884;PMS5003;43703;51.060;-0.086;2023-02-23T01:28:38;29;26;
57884;PMS5003;43703;51.060;-0.086;2023-02-23T01:31:06;29;28;
57884;PMS5003;43703;51.060;-0.086;2023-02-23T01:33:29;31;31;
57884;PMS5003;43703;51.060;-0.086;2023-02-23T01:35:56;31;28;
57884;PMS5003;43703;51.060;-0.086;2023-02-23T01:38:20;28;28;
57884;PMS5003;43703;51.060;-0.086;2023-02-23T01:40:45;31;31;
57884;PMS5003;43703;51.060;-0.086;2023-02-23T01:43:11;30;30;
57884;PMS5003;43703;51.060;-0.086;2023-02-23T01:45:36;38;35;
57884;PMS5003;43703;51.060;-0.086;2023-02-23T01:48:03;29;29;
57884;PMS5003;43703;51.060;-0.086;2023-02-23T01:50:27;33;30;
57884;PMS5003;43703;51.060;-0.086;2023-02-23T01:52:51;31;31;
57884;PMS5003;43703;51.060;-0.086;2023-02-23T01:55:18;32;30;
57884;PMS5003;43703;51.060;-0.086;2023-02-23T01:57:42;33;32;
57884;PMS5003;43703;51.060;-0.086;2023-02-23T02:00:08;35;32;
57884;PMS5003;43703;51.060;-0.086;2023-02-23T02:02:33;32;28;
57884;PMS5003;43703;51.060;-0.086;2023-02-23T02:04:58;30;27;
57884;PMS5003;43703;51.060;-0.086;2023-02-23T02:07:25;30;27;
57884;PMS5003;43703;51.060;-0.086;2023-02-23T02:09:50;39;34;
57884;PMS5003;43703;51.060;-0.086;2023-02-23T02:12:14;35;30;
57884;PMS5003;43703;51.060;-0.086;2023-02-23T02:14:40;30;26;
57884;PMS5003;43703;51.060;-0.086;2023-02-23T02:17:06;31;29;
57884;PMS5003;43703;51.060;-0.086;2023-02-23T02:19:38;34;30;
57884;PMS5003;43703;51.060;-0.086;2023-02-23T02:24:29;29;28;
57884;PMS5003;43703;51.060;-0.086;2023-02-23T02:26:49;34;30;
57884;PMS5003;43703;51.060;-0.086;2023-02-23T02:38:53;25;23;
57884;PMS5003;43703;51.060;-0.086;2023-02-23T02:41:19;25;25;
57884;PMS5003;43703;51.060;-0.086;2023-02-23T02:43:44;29;24;
57884;PMS5003;43703;51.060;-0.086;2023-02-23T02:46:10;25;23;
57884;PMS5003;43703;51.060;-0.086;2023-02-23T02:48:36;25;24;
57884;PMS5003;43703;51.060;-0.086;2023-02-23T02:51:02;26;23;
57884;PMS5003;43703;51.060;-0.086;2023-02-23T02:53:27;23;23;
57884;PMS5003;43703;51.060;-0.086;2023-02-23T02:55:50;21;18;
57884;PMS5003;43703;51.060;-0.086;2023-02-23T02:58:15;26;21;
57884;PMS5003;43703;51.060;-0.086;2023-02-23T03:03:07;23;23;
57884;PMS5003;43703;51.060;-0.086;2023-02-23T03:05:35;23;23;
57884;PMS5003;43703;51.060;-0.086;2023-02-23T03:08:00;23;22;
57884;PMS5003;43703;51.060;-0.086;2023-02-23T03:10:24;26;23;
57884;PMS5003;43703;51.060;-0.086;2023-02-23T03:12:50;25;23;
57884;PMS5003;43703;51.060;-0.086;2023-02-23T03:15:18;22;22;
57884;PMS5003;43703;51.060;-0.086;2023-02-23T03:17:41;22;19;
57884;PMS5003;43703;51.060;-0.086;2023-02-23T03:20:09;20;20;
57884;PMS5003;43703;51.060;-0.086;2023-02-23T03:22:32;23;23;
57884;PMS5003;43703;51.060;-0.086;2023-02-23T03:24:57;16;16;
57884;PMS5003;43703;51.060;-0.086;2023-02-23T03:27:22;15;15;
57884;PMS5003;43703;51.060;-0.086;2023-02-23T03:29:48;17;17;
57884;PMS5003;43703;51.060;-0.086;2023-02-23T03:32:13;16;16;
57884;PMS5003;43703;51.060;-0.086;2023-02-23T03:34:39;17;15;
57884;PMS5003;43703;51.060;-0.086;2023-02-23T03:37:04;16;15;
57884;PMS5003;43703;51.060;-0.086;2023-02-23T03:39:29;14;12;
57884;PMS5003;43703;51.060;-0.086;2023-02-23T03:41:53;14;14;
57884;PMS5003;43703;51.060;-0.086;2023-02-23T03:44:20;18;15;
57884;PMS5003;43703;51.060;-0.086;2023-02-23T03:46:45;14;14;
57884;PMS5003;43703;51.060;-0.086;2023-02-23T03:49:09;13;12;
57884;PMS5003;43703;51.060;-0.086;2023-02-23T03:51:36;13;11;
57884;PMS5003;43703;51.060;-0.086;2023-02-23T03:54:00;12;12;
57884;PMS5003;43703;51.060;-0.086;2023-02-23T03:56:25;10;10;
57884;PMS5003;43703;51.060;-0.086;2023-02-23T03:58:51;9;9;
57884;PMS5003;43703;51.060;-0.086;2023-02-23T04:01:15;9;9;
57884;PMS5003;43703;51.060;-0.086;2023-02-23T04:03:40;9;9;
57884;PMS5003;43703;51.060;-0.086;2023-02-23T04:06:07;13;11;
57884;PMS5003;43703;51.060;-0.086;2023-02-23T04:08:32;8;8;
57884;PMS5003;43703;51.060;-0.086;2023-02-23T04:10:57;9;9;
57884;PMS5003;43703;51.060;-0.086;2023-02-23T04:13:23;11;10;
57884;PMS5003;43703;51.060;-0.086;2023-02-23T04:15:48;9;8;
57884;PMS5003;43703;51.060;-0.086;2023-02-23T04:18:13;9;7;
57884;PMS5003;43703;51.060;-0.086;2023-02-23T04:20:37;7;5;
57884;PMS5003;43703;51.060;-0.086;2023-02-23T04:23:02;8;6;
57884;PMS5003;43703;51.060;-0.086;2023-02-23T04:25:28;6;6;
57884;PMS5003;43703;51.060;-0.086;2023-02-23T04:27:52;7;7;
57884;PMS5003;43703;51.060;-0.086;2023-02-23T04:30:18;7;7;
57884;PMS5003;43703;51.060;-0.086;2023-02-23T04:32:43;5;4;
57884;PMS5003;43703;51.060;-0.086;2023-02-23T04:35:08;5;5;
57884;PMS5003;43703;51.060;-0.086;2023-02-23T04:37:33;6;6;
57884;PMS5003;43703;51.060;-0.086;2023-02-23T04:39:58;7;7;
57884;PMS5003;43703;51.060;-0.086;2023-02-23T04:42:23;5;5;
57884;PMS5003;43703;51.060;-0.086;2023-02-23T04:44:48;6;6;
57884;PMS5003;43703;51.060;-0.086;2023-02-23T04:47:13;7;7;
57884;PMS5003;43703;51.060;-0.086;2023-02-23T04:49:38;6;6;
57884;PMS5003;43703;51.060;-0.086;2023-02-23T04:52:04;6;6;
57884;PMS5003;43703;51.060;-0.086;2023-02-23T04:54:28;4;4;
57884;PMS5003;43703;51.060;-0.086;2023-02-23T04:56:53;6;6;
57884;PMS5003;43703;51.060;-0.086;2023-02-23T04:59:18;6;6;
57884;PMS5003;43703;51.060;-0.086;2023-02-23T05:01:43;10;9;
57884;PMS5003;43703;51.060;-0.086;2023-02-23T05:04:08;10;6;
57884;PMS5003;43703;51.060;-0.086;2023-02-23T05:06:34;6;6;
57884;PMS5003;43703;51.060;-0.086;2023-02-23T05:08:58;6;6;
57884;PMS5003;43703;51.060;-0.086;2023-02-23T05:11:23;8;8;
57884;PMS5003;43703;51.060;-0.086;2023-02-23T05:13:49;7;7;
57884;PMS5003;43703;51.060;-0.086;2023-02-23T05:16:14;7;6;
57884;PMS5003;43703;51.060;-0.086;2023-02-23T05:18:39;8;8;
57884;PMS5003;43703;51.060;-0.086;2023-02-23T05:21:05;9;7;
57884;PMS5003;43703;51.060;-0.086;2023-02-23T05:23:29;7;7;
57884;PMS5003;43703;51.060;-0.086;2023-02-23T05:25:58;6;6;
57884;PMS5003;43703;51.060;-0.086;2023-02-23T05:28:19;8;8;
57884;PMS5003;43703;51.060;-0.086;2023-02-23T05:30:44;10;8;
57884;PMS5003;43703;51.060;-0.086;2023-02-23T05:33:09;7;7;
57884;PMS5003;43703;51.060;-0.086;2023-02-23T05:35:38;7;7;
57884;PMS5003;43703;51.060;-0.086;2023-02-23T05:38:02;8;7;
57884;PMS5003;43703;51.060;-0.086;2023-02-23T05:40:25;6;6;
57884;PMS5003;43703;51.060;-0.086;2023-02-23T05:42:50;8;8;
57884;PMS5003;43703;51.060;-0.086;2023-02-23T05:45:15;9;7;
57884;PMS5003;43703;51.060;-0.086;2023-02-23T05:47:41;8;8;
57884;PMS5003;43703;51.060;-0.086;2023-02-23T05:50:07;9;9;
57884;PMS5003;43703;51.060;-0.086;2023-02-23T05:52:31;8;8;
57884;PMS5003;43703;51.060;-0.086;2023-02-23T05:54:56;8;8;
57884;PMS5003;43703;51.060;-0.086;2023-02-23T05:57:22;10;7;
57884;PMS5003;43703;51.060;-0.086;2023-02-23T05:59:47;7;6;
57884;PMS5003;43703;51.060;-0.086;2023-02-23T06:02:12;7;7;
57884;PMS5003;43703;51.060;-0.086;2023-02-23T06:04:37;7;6;
57884;PMS5003;43703;51.060;-0.086;2023-02-23T06:07:02;8;6;
57884;PMS5003;43703;51.060;-0.086;2023-02-23T06:09:27;10;7;
57884;PMS5003;43703;51.060;-0.086;2023-02-23T06:11:52;7;7;
57884;PMS5003;43703;51.060;-0.086;2023-02-23T06:14:17;8;6;
57884;PMS5003;43703;51.060;-0.086;2023-02-23T06:16:43;7;5;
57884;PMS5003;43703;51.060;-0.086;2023-02-23T06:19:08;5;5;
57884;PMS5003;43703;51.060;-0.086;2023-02-23T06:21:33;5;5;
57884;PMS5003;43703;51.060;-0.086;2023-02-23T06:23:58;6;6;
57884;PMS5003;43703;51.060;-0.086;2023-02-23T06:26:23;10;8;
57884;PMS5003;43703;51.060;-0.086;2023-02-23T06:28:48;6;6;
57884;PMS5003;43703;51.060;-0.086;2023-02-23T06:31:13;6;5;
57884;PMS5003;43703;51.060;-0.086;2023-02-23T06:33:38;5;5;
57884;PMS5003;43703;51.060;-0.086;2023-02-23T06:36:03;7;7;
57884;PMS5003;43703;51.060;-0.086;2023-02-23T06:38:28;7;7;
57884;PMS5003;43703;51.060;-0.086;2023-02-23T06:40:53;7;7;
57884;PMS5003;43703;51.060;-0.086;2023-02-23T06:43:18;4;4;
57884;PMS5003;43703;51.060;-0.086;2023-02-23T06:45:45;6;6;
57884;PMS5003;43703;51.060;-0.086;2023-02-23T06:48:08;7;7;
57884;PMS5003;43703;51.060;-0.086;2023-02-23T06:50:33;8;8;
57884;PMS5003;43703;51.060;-0.086;2023-02-23T06:52:59;7;6;
57884;PMS5003;43703;51.060;-0.086;2023-02-23T06:55:24;8;8;
57884;PMS5003;43703;51.060;-0.086;2023-02-23T06:57:49;8;8;
57884;PMS5003;43703;51.060;-0.086;2023-02-23T07:00:14;6;6;
57884;PMS5003;43703;51.060;-0.086;2023-02-23T07:02:39;7;5;
57884;PMS5003;43703;51.060;-0.086;2023-02-23T07:05:04;8;8;
57884;PMS5003;43703;51.060;-0.086;2023-02-23T07:07:29;7;7;
57884;PMS5003;43703;51.060;-0.086;2023-02-23T07:09:54;5;5;
57884;PMS5003;43703;51.060;-0.086;2023-02-23T07:12:19;6;5;
57884;PMS5003;43703;51.060;-0.086;2023-02-23T07:14:44;7;6;
57884;PMS5003;43703;51.060;-0.086;2023-02-23T07:17:09;7;5;
57884;PMS5003;43703;51.060;-0.086;2023-02-23T07:19:35;7;5;
57884;PMS5003;43703;51.060;-0.086;2023-02-23T07:21:59;6;6;
57884;PMS5003;43703;51.060;-0.086;2023-02-23T07:24:25;7;6;
57884;PMS5003;43703;51.060;-0.086;2023-02-23T07:26:50;7;7;
57884;PMS5003;43703;51.060;-0.086;2023-02-23T07:29:15;10;8;
57884;PMS5003;43703;51.060;-0.086;2023-02-23T07:31:40;7;7;
57884;PMS5003;43703;51.060;-0.086;2023-02-23T07:34:05;9;7;
57884;PMS5003;43703;51.060;-0.086;2023-02-23T07:36:30;5;5;
57884;PMS5003;43703;51.060;-0.086;2023-02-23T07:38:55;7;7;
57884;PMS5003;43703;51.060;-0.086;2023-02-23T07:41:20;9;8;
57884;PMS5003;43703;51.060;-0.086;2023-02-23T07:43:45;6;6;
57884;PMS5003;43703;51.060;-0.086;2023-02-23T07:46:10;6;6;
57884;PMS5003;43703;51.060;-0.086;2023-02-23T07:48:35;7;7;
57884;PMS5003;43703;51.060;-0.086;2023-02-23T07:51:00;6;6;
57884;PMS5003;43703;51.060;-0.086;2023-02-23T07:53:25;7;7;
57884;PMS5003;43703;51.060;-0.086;2023-02-23T07:55:54;9;7;
57884;PMS5003;43703;51.060;-0.086;2023-02-23T07:58:16;8;8;
57884;PMS5003;43703;51.060;-0.086;2023-02-23T08:00:41;10;8;
57884;PMS5003;43703;51.060;-0.086;2023-02-23T08:03:06;9;7;
57884;PMS5003;43703;51.060;-0.086;2023-02-23T08:05:31;9;9;
57884;PMS5003;43703;51.060;-0.086;2023-02-23T08:07:56;8;8;
57884;PMS5003;43703;51.060;-0.086;2023-02-23T08:10:21;7;7;
57884;PMS5003;43703;51.060;-0.086;2023-02-23T08:12:46;8;6;
57884;PMS5003;43703;51.060;-0.086;2023-02-23T08:15:11;7;7;
57884;PMS5003;43703;51.060;-0.086;2023-02-23T08:17:37;9;9;
57884;PMS5003;43703;51.060;-0.086;2023-02-23T08:20:01;6;6;
57884;PMS5003;43703;51.060;-0.086;2023-02-23T08:22:26;7;7;
57884;PMS5003;43703;51.060;-0.086;2023-02-23T08:24:51;8;7;
57884;PMS5003;43703;51.060;-0.086;2023-02-23T08:27:16;5;3;
57884;PMS5003;43703;51.060;-0.086;2023-02-23T08:29:41;6;6;
57884;PMS5003;43703;51.060;-0.086;2023-02-23T08:32:06;7;7;
57884;PMS5003;43703;51.060;-0.086;2023-02-23T08:34:36;7;7;
57884;PMS5003;43703;51.060;-0.086;2023-02-23T08:36:57;8;7;
57884;PMS5003;43703;51.060;-0.086;2023-02-23T08:39:22;5;5;
57884;PMS5003;43703;51.060;-0.086;2023-02-23T08:41:47;7;6;
57884;PMS5003;43703;51.060;-0.086;2023-02-23T08:44:12;7;7;
57884;PMS5003;43703;51.060;-0.086;2023-02-23T08:46:37;7;7;
57884;PMS5003;43703;51.060;-0.086;2023-02-23T08:49:02;10;9;
57884;PMS5003;43703;51.060;-0.086;2023-02-23T08:51:27;5;5;
57884;PMS5003;43703;51.060;-0.086;2023-02-23T08:53:52;6;6;
57884;PMS5003;43703;51.060;-0.086;2023-02-23T08:56:17;9;8;
57884;PMS5003;43703;51.060;-0.086;2023-02-23T08:58:42;7;6;
57884;PMS5003;43703;51.060;-0.086;2023-02-23T09:03:33;6;5;
57884;PMS5003;43703;51.060;-0.086;2023-02-23T09:06:03;7;7;
57884;PMS5003;43703;51.060;-0.086;2023-02-23T09:08:23;5;5;
57884;PMS5003;43703;51.060;-0.086;2023-02-23T09:10:48;7;7;
57884;PMS5003;43703;51.060;-0.086;2023-02-23T09:13:13;4;4;
57884;PMS5003;43703;51.060;-0.086;2023-02-23T09:15:38;6;6;
57884;PMS5003;43703;51.060;-0.086;2023-02-23T09:18:03;4;4;
57884;PMS5003;43703;51.060;-0.086;2023-02-23T09:20:28;6;6;
57884;PMS5003;43703;51.060;-0.086;2023-02-23T09:22:53;4;4;
57884;PMS5003;43703;51.060;-0.086;2023-02-23T09:25:19;7;5;
57884;PMS5003;43703;51.060;-0.086;2023-02-23T09:27:43;4;4;
57884;PMS5003;43703;51.060;-0.086;2023-02-23T09:30:09;6;6;
57884;PMS5003;43703;51.060;-0.086;2023-02-23T09:32:34;5;5;
57884;PMS5003;43703;51.060;-0.086;2023-02-23T09:34:59;6;5;
57884;PMS5003;43703;51.060;-0.086;2023-02-23T09:37:24;6;6;
57884;PMS5003;43703;51.060;-0.086;2023-02-23T09:39:49;7;5;
57884;PMS5003;43703;51.060;-0.086;2023-02-23T09:42:15;7;7;
57884;PMS5003;43703;51.060;-0.086;2023-02-23T09:44:42;8;6;
57884;PMS5003;43703;51.060;-0.086;2023-02-23T09:47:08;6;6;
57884;PMS5003;43703;51.060;-0.086;2023-02-23T09:49:30;7;7;
57884;PMS5003;43703;51.060;-0.086;2023-02-23T09:51:56;6;6;
57884;PMS5003;43703;51.060;-0.086;2023-02-23T09:54:20;7;5;
57884;PMS5003;43703;51.060;-0.086;2023-02-23T09:56:47;4;4;
57884;PMS5003;43703;51.060;-0.086;2023-02-23T09:59:12;6;6;
57884;PMS5003;43703;51.060;-0.086;2023-02-23T10:04:02;6;6;
57884;PMS5003;43703;51.060;-0.086;2023-02-23T10:06:25;4;4;
57884;PMS5003;43703;51.060;-0.086;2023-02-23T10:08:55;8;6;
57884;PMS5003;43703;51.060;-0.086;2023-02-23T10:11:19;6;6;
57884;PMS5003;43703;51.060;-0.086;2023-02-23T10:13:43;6;6;
57884;PMS5003;43703;51.060;-0.086;2023-02-23T10:16:08;6;6;
57884;PMS5003;43703;51.060;-0.086;2023-02-23T10:18:32;6;6;
57884;PMS5003;43703;51.060;-0.086;2023-02-23T10:20:57;7;7;
57884;PMS5003;43703;51.060;-0.086;2023-02-23T10:23:22;7;7;
57884;PMS5003;43703;51.060;-0.086;2023-02-23T10:25:46;6;6;
57884;PMS5003;43703;51.060;-0.086;2023-02-23T10:28:11;5;3;
57884;PMS5003;43703;51.060;-0.086;2023-02-23T10:30:36;7;5;
57884;PMS5003;43703;51.060;-0.086;2023-02-23T10:33:03;7;5;
57884;PMS5003;43703;51.060;-0.086;2023-02-23T10:35:26;6;6;
57884;PMS5003;43703;51.060;-0.086;2023-02-23T10:37:51;5;5;
57884;PMS5003;43703;51.060;-0.086;2023-02-23T10:40:17;3;3;
57884;PMS5003;43703;51.060;-0.086;2023-02-23T10:42:41;5;5;
57884;PMS5003;43703;51.060;-0.086;2023-02-23T10:45:10;8;6;
57884;PMS5003;43703;51.060;-0.086;2023-02-23T10:47:31;3;3;
57884;PMS5003;43703;51.060;-0.086;2023-02-23T10:49:56;3;3;
57884;PMS5003;43703;51.060;-0.086;2023-02-23T10:52:22;5;5;
57884;PMS5003;43703;51.060;-0.086;2023-02-23T10:54:46;7;3;
57884;PMS5003;43703;51.060;-0.086;2023-02-23T10:57:12;4;3;
57884;PMS5003;43703;51.060;-0.086;2023-02-23T10:59:36;4;4;
57884;PMS5003;43703;51.060;-0.086;2023-02-23T11:04:27;3;3;
57884;PMS5003;43703;51.060;-0.086;2023-02-23T11:06:58;6;5;
57884;PMS5003;43703;51.060;-0.086;2023-02-23T11:09:21;7;4;
57884;PMS5003;43703;51.060;-0.086;2023-02-23T11:11:44;5;5;
57884;PMS5003;43703;51.060;-0.086;2023-02-23T11:14:15;6;4;
57884;PMS5003;43703;51.060;-0.086;2023-02-23T11:16:36;4;4;
57884;PMS5003;43703;51.060;-0.086;2023-02-23T11:18:58;5;4;
57884;PMS5003;43703;51.060;-0.086;2023-02-23T11:21:23;3;3;
57884;PMS5003;43703;51.060;-0.086;2023-02-23T11:23:48;3;3;
57884;PMS5003;43703;51.060;-0.086;2023-02-23T11:26:18;6;6;
57884;PMS5003;43703;51.060;-0.086;2023-02-23T11:28:40;5;4;
57884;PMS5003;43703;51.060;-0.086;2023-02-23T11:31:03;5;5;
57884;PMS5003;43703;51.060;-0.086;2023-02-23T11:33:28;7;5;
57884;PMS5003;43703;51.060;-0.086;2023-02-23T11:35:56;3;3;
57884;PMS5003;43703;51.060;-0.086;2023-02-23T11:38:21;7;4;
57884;PMS5003;43703;51.060;-0.086;2023-02-23T11:40:42;2;2;
57884;PMS5003;43703;51.060;-0.086;2023-02-23T11:43:08;8;7;
57884;PMS5003;43703;51.060;-0.086;2023-02-23T11:45:35;3;3;
57884;PMS5003;43703;51.060;-0.086;2023-02-23T11:47:57;6;4;
57884;PMS5003;43703;51.060;-0.086;2023-02-23T11:50:24;4;4;
57884;PMS5003;43703;51.060;-0.086;2023-02-23T11:52:48;5;4;
57884;PMS5003;43703;51.060;-0.086;2023-02-23T11:55:14;8;6;
57884;PMS5003;43703;51.060;-0.086;2023-02-23T11:57:38;4;4;
57884;PMS5003;43703;51.060;-0.086;2023-02-23T12:00:08;6;4;
57884;PMS5003;43703;51.060;-0.086;2023-02-23T12:02:28;6;6;
57884;PMS5003;43703;51.060;-0.086;2023-02-23T12:04:59;4;4;
57884;PMS5003;43703;51.060;-0.086;2023-02-23T12:09:43;6;4;
57884;PMS5003;43703;51.060;-0.086;2023-02-23T12:12:08;3;3;
57884;PMS5003;43703;51.060;-0.086;2023-02-23T12:14:35;6;6;
57884;PMS5003;43703;51.060;-0.086;2023-02-23T12:17:00;6;3;
57884;PMS5003;43703;51.060;-0.086;2023-02-23T12:19:24;6;6;
57884;PMS5003;43703;51.060;-0.086;2023-02-23T12:21:49;6;6;
57884;PMS5003;43703;51.060;-0.086;2023-02-23T12:24:14;7;6;
57884;PMS5003;43703;51.060;-0.086;2023-02-23T12:26:40;3;3;
57884;PMS5003;43703;51.060;-0.086;2023-02-23T12:29:04;6;6;
57884;PMS5003;43703;51.060;-0.086;2023-02-23T12:31:35;5;3;
57884;PMS5003;43703;51.060;-0.086;2023-02-23T12:33:54;4;4;
57884;PMS5003;43703;51.060;-0.086;2023-02-23T12:36:21;5;5;
57884;PMS5003;43703;51.060;-0.086;2023-02-23T12:38:46;4;4;
57884;PMS5003;43703;51.060;-0.086;2023-02-23T12:41:10;4;4;
57884;PMS5003;43703;51.060;-0.086;2023-02-23T12:43:35;2;2;
57884;PMS5003;43703;51.060;-0.086;2023-02-23T12:46:01;3;3;
57884;PMS5003;43703;51.060;-0.086;2023-02-23T12:48:27;4;4;
57884;PMS5003;43703;51.060;-0.086;2023-02-23T12:50:49;3;2;
57884;PMS5003;43703;51.060;-0.086;2023-02-23T12:53:16;5;4;
57884;PMS5003;43703;51.060;-0.086;2023-02-23T12:55:42;5;5;
57884;PMS5003;43703;51.060;-0.086;2023-02-23T12:58:05;4;4;
57884;PMS5003;43703;51.060;-0.086;2023-02-23T13:02:57;8;7;
57884;PMS5003;43703;51.060;-0.086;2023-02-23T13:05:20;9;7;
57884;PMS5003;43703;51.060;-0.086;2023-02-23T13:07:47;4;4;
57884;PMS5003;43703;51.060;-0.086;2023-02-23T13:10:12;10;7;
57884;PMS5003;43703;51.060;-0.086;2023-02-23T13:12:38;6;6;
57884;PMS5003;43703;51.060;-0.086;2023-02-23T13:15:01;7;7;
57884;PMS5003;43703;51.060;-0.086;2023-02-23T13:17:30;9;9;
57884;PMS5003;43703;51.060;-0.086;2023-02-23T13:19:51;7;7;
57884;PMS5003;43703;51.060;-0.086;2023-02-23T13:22:22;5;5;
57884;PMS5003;43703;51.060;-0.086;2023-02-23T13:24:42;10;8;
57884;PMS5003;43703;51.060;-0.086;2023-02-23T13:27:09;17;15;
57884;PMS5003;43703;51.060;-0.086;2023-02-23T13:29:33;20;19;
57884;PMS5003;43703;51.060;-0.086;2023-02-23T13:31:57;8;5;
57884;PMS5003;43703;51.060;-0.086;2023-02-23T13:34:23;6;5;
57884;PMS5003;43703;51.060;-0.086;2023-02-23T13:36:47;5;5;
57884;PMS5003;43703;51.060;-0.086;2023-02-23T13:39:18;6;4;
57884;PMS5003;43703;51.060;-0.086;2023-02-23T13:41:38;6;6;
57884;PMS5003;43703;51.060;-0.086;2023-02-23T13:44:05;10;7;
57884;PMS5003;43703;51.060;-0.086;2023-02-23T13:46:29;4;4;
57884;PMS5003;43703;51.060;-0.086;2023-02-23T13:48:54;4;4;
57884;PMS5003;43703;51.060;-0.086;2023-02-23T13:51:19;4;4;
57884;PMS5003;43703;51.060;-0.086;2023-02-23T13:53:44;5;5;
57884;PMS5003;43703;51.060;-0.086;2023-02-23T13:56:09;8;8;
57884;PMS5003;43703;51.060;-0.086;2023-02-23T13:58:33;6;6;
57884;PMS5003;43703;51.060;-0.086;2023-02-23T14:03:24;5;5;
57884;PMS5003;43703;51.060;-0.086;2023-02-23T14:05:49;7;6;
57884;PMS5003;43703;51.060;-0.086;2023-02-23T14:08:19;7;7;
57884;PMS5003;43703;51.060;-0.086;2023-02-23T14:10:38;5;4;
57884;PMS5003;43703;51.060;-0.086;2023-02-23T14:13:06;6;5;
57884;PMS5003;43703;51.060;-0.086;2023-02-23T14:17:55;7;6;
57884;PMS5003;43703;51.060;-0.086;2023-02-23T14:20:22;4;4;
57884;PMS5003;43703;51.060;-0.086;2023-02-23T14:27:35;10;4;
57884;PMS5003;43703;51.060;-0.086;2023-02-23T14:32:26;5;5;
57884;PMS5003;43703;51.060;-0.086;2023-02-23T14:34:50;7;5;
57884;PMS5003;43703;51.060;-0.086;2023-02-23T14:37:16;6;6;
57884;PMS5003;43703;51.060;-0.086;2023-02-23T14:39:39;11;11;
57884;PMS5003;43703;51.060;-0.086;2023-02-23T14:42:05;9;9;
57884;PMS5003;43703;51.060;-0.086;2023-02-23T14:44:30;6;4;
57884;PMS5003;43703;51.060;-0.086;2023-02-23T14:46:57;9;6;
57884;PMS5003;43703;51.060;-0.086;2023-02-23T14:49:19;5;5;
57884;PMS5003;43703;51.060;-0.086;2023-02-23T14:51:44;5;5;
57884;PMS5003;43703;51.060;-0.086;2023-02-23T14:54:10;7;4;
57884;PMS5003;43703;51.060;-0.086;2023-02-23T14:56:35;7;6;
57884;PMS5003;43703;51.060;-0.086;2023-02-23T14:58:59;4;4;
57884;PMS5003;43703;51.060;-0.086;2023-02-23T15:06:14;3;3;
57884;PMS5003;43703;51.060;-0.086;2023-02-23T15:08:41;3;3;
57884;PMS5003;43703;51.060;-0.086;2023-02-23T15:11:05;3;2;
57884;PMS5003;43703;51.060;-0.086;2023-02-23T15:13:30;2;2;
57884;PMS5003;43703;51.060;-0.086;2023-02-23T15:15:54;1;1;
57884;PMS5003;43703;51.060;-0.086;2023-02-23T15:18:20;2;2;
57884;PMS5003;43703;51.060;-0.086;2023-02-23T15:20:44;2;2;
57884;PMS5003;43703;51.060;-0.086;2023-02-23T15:23:11;4;4;
57884;PMS5003;43703;51.060;-0.086;2023-02-23T15:25:35;2;2;
57884;PMS5003;43703;51.060;-0.086;2023-02-23T15:30:26;6;4;
57884;PMS5003;43703;51.060;-0.086;2023-02-23T15:35:15;6;4;
57884;PMS5003;43703;51.060;-0.086;2023-02-23T15:37:40;6;6;
57884;PMS5003;43703;51.060;-0.086;2023-02-23T15:40:06;7;7;
57884;PMS5003;43703;51.060;-0.086;2023-02-23T15:42:31;7;6;
57884;PMS5003;43703;51.060;-0.086;2023-02-23T15:44:56;5;5;
57884;PMS5003;43703;51.060;-0.086;2023-02-23T15:47:20;5;5;
57884;PMS5003;43703;51.060;-0.086;2023-02-23T15:49:45;8;7;
57884;PMS5003;43703;51.060;-0.086;2023-02-23T15:52:13;4;4;
57884;PMS5003;43703;51.060;-0.086;2023-02-23T15:54:36;5;3;
57884;PMS5003;43703;51.060;-0.086;2023-02-23T15:57:02;4;4;
57884;PMS5003;43703;51.060;-0.086;2023-02-23T15:59:26;5;4;
57884;PMS5003;43703;51.060;-0.086;2023-02-23T16:01:51;3;3;
57884;PMS5003;43703;51.060;-0.086;2023-02-23T16:04:16;2;2;
57884;PMS5003;43703;51.060;-0.086;2023-02-23T16:06:47;3;3;
57884;PMS5003;43703;51.060;-0.086;2023-02-23T16:11:31;5;3;
57884;PMS5003;43703;51.060;-0.086;2023-02-23T16:13:56;4;2;
57884;PMS5003;43703;51.060;-0.086;2023-02-23T16:16:21;5;4;
57884;PMS5003;43703;51.060;-0.086;2023-02-23T16:18:49;7;5;
57884;PMS5003;43703;51.060;-0.086;2023-02-23T16:21:12;7;5;
57884;PMS5003;43703;51.060;-0.086;2023-02-23T16:23:39;4;3;
57884;PMS5003;43703;51.060;-0.086;2023-02-23T16:26:05;6;6;
57884;PMS5003;43703;51.060;-0.086;2023-02-23T16:28:28;4;4;
57884;PMS5003;43703;51.060;-0.086;2023-02-23T16:30:55;4;4;
57884;PMS5003;43703;51.060;-0.086;2023-02-23T16:33:20;3;3;
57884;PMS5003;43703;51.060;-0.086;2023-02-23T16:35:43;6;6;
57884;PMS5003;43703;51.060;-0.086;2023-02-23T16:38:11;9;8;
57884;PMS5003;43703;51.060;-0.086;2023-02-23T16:40:33;9;9;
57884;PMS5003;43703;51.060;-0.086;2023-02-23T16:42:58;10;9;
57884;PMS5003;43703;51.060;-0.086;2023-02-23T16:45:23;9;8;
57884;PMS5003;43703;51.060;-0.086;2023-02-23T16:47:49;10;10;
57884;PMS5003;43703;51.060;-0.086;2023-02-23T16:50:16;13;12;
57884;PMS5003;43703;51.060;-0.086;2023-02-23T16:52:40;13;13;
57884;PMS5003;43703;51.060;-0.086;2023-02-23T16:55:05;12;12;
57884;PMS5003;43703;51.060;-0.086;2023-02-23T16:57:33;11;11;
57884;PMS5003;43703;51.060;-0.086;2023-02-23T16:59:57;13;13;
57884;PMS5003;43703;51.060;-0.086;2023-02-23T17:02:22;15;14;
57884;PMS5003;43703;51.060;-0.086;2023-02-23T17:04:48;16;13;
57884;PMS5003;43703;51.060;-0.086;2023-02-23T17:07:14;14;12;
57884;PMS5003;43703;51.060;-0.086;2023-02-23T17:09:39;8;8;